sensor_id;sensor_type;location;lat;lon;timestamp;P1;durP1;ratioP1;P2;durP2;ratioP2
55114;SDS011;41010;53.252;5.786;2023-02-28T00:00:18;11.32;;;3.05;;
55114;SDS011;41010;53.252;5.786;2023-02-28T00:02:46;10.95;;;3.08;;
55114;SDS011;41010;53.252;5.786;2023-02-28T00:05:15;7.50;;;1.45;;
55114;SDS011;41010;53.252;5.786;2023-02-28T00:07:43;7.13;;;1.40;;
55114;SDS011;41010;53.252;5.786;2023-02-28T00:10:11;11.02;;;1.63;;
55114;SDS011;41010;53.252;5.786;2023-02-28T00:12:38;10.25;;;1.48;;
55114;SDS011;41010;53.252;5.786;2023-02-28T00:15:07;13.43;;;2.28;;
55114;SDS011;41010;53.252;5.786;2023-02-28T00:17:34;11.40;;;2.97;;
55114;SDS011;41010;53.252;5.786;2023-02-28T00:20:04;15.15;;;4.82;;
55114;SDS011;41010;53.252;5.786;2023-02-28T00:22:33;8.30;;;1.48;;
55114;SDS011;41010;53.252;5.786;2023-02-28T00:25:01;11.80;;;1.67;;
55114;SDS011;41010;53.252;5.786;2023-02-28T00:27:28;10.00;;;1.17;;
55114;SDS011;41010;53.252;5.786;2023-02-28T00:29:55;10.98;;;1.83;;
55114;SDS011;41010;53.252;5.786;2023-02-28T00:32:23;5.82;;;1.50;;
55114;SDS011;41010;53.252;5.786;2023-02-28T00:34:50;6.13;;;1.08;;
55114;SDS011;41010;53.252;5.786;2023-02-28T00:37:19;12.75;;;1.45;;
55114;SDS011;41010;53.252;5.786;2023-02-28T00:39:46;7.30;;;1.25;;
55114;SDS011;41010;53.252;5.786;2023-02-28T00:42:13;15.70;;;2.22;;
55114;SDS011;41010;53.252;5.786;2023-02-28T00:44:40;6.43;;;1.33;;
55114;SDS011;41010;53.252;5.786;2023-02-28T00:47:08;8.27;;;1.65;;
55114;SDS011;41010;53.252;5.786;2023-02-28T00:49:35;12.18;;;2.25;;
55114;SDS011;41010;53.252;5.786;2023-02-28T00:52:02;8.60;;;1.50;;
55114;SDS011;41010;53.252;5.786;2023-02-28T00:54:31;6.97;;;1.30;;
55114;SDS011;41010;53.252;5.786;2023-02-28T00:56:58;11.43;;;1.73;;
55114;SDS011;41010;53.252;5.786;2023-02-28T00:59:25;7.72;;;1.52;;
55114;SDS011;41010;53.252;5.786;2023-02-28T01:01:53;9.48;;;1.45;;
55114;SDS011;41010;53.252;5.786;2023-02-28T01:04:20;9.70;;;1.52;;
55114;SDS011;41010;53.252;5.786;2023-02-28T01:06:48;7.32;;;1.50;;
55114;SDS011;41010;53.252;5.786;2023-02-28T01:09:15;8.50;;;1.48;;
55114;SDS011;41010;53.252;5.786;2023-02-28T01:11:44;15.95;;;1.85;;
55114;SDS011;41010;53.252;5.786;2023-02-28T01:14:12;20.20;;;1.77;;
55114;SDS011;41010;53.252;5.786;2023-02-28T01:16:39;8.05;;;1.50;;
55114;SDS011;41010;53.252;5.786;2023-02-28T01:19:06;10.93;;;1.65;;
55114;SDS011;41010;53.252;5.786;2023-02-28T01:21:34;7.35;;;1.40;;
55114;SDS011;41010;53.252;5.786;2023-02-28T01:24:01;10.68;;;1.40;;
55114;SDS011;41010;53.252;5.786;2023-02-28T01:26:28;10.23;;;1.50;;
55114;SDS011;41010;53.252;5.786;2023-02-28T01:28:57;12.20;;;1.92;;
55114;SDS011;41010;53.252;5.786;2023-02-28T01:31:24;7.93;;;1.60;;
55114;SDS011;41010;53.252;5.786;2023-02-28T01:33:52;14.90;;;1.88;;
55114;SDS011;41010;53.252;5.786;2023-02-28T01:36:20;8.75;;;1.35;;
55114;SDS011;41010;53.252;5.786;2023-02-28T01:38:47;8.20;;;1.52;;
55114;SDS011;41010;53.252;5.786;2023-02-28T01:41:16;12.02;;;1.42;;
55114;SDS011;41010;53.252;5.786;2023-02-28T01:43:53;7.70;;;1.38;;
55114;SDS011;41010;53.252;5.786;2023-02-28T01:46:22;11.40;;;1.30;;
55114;SDS011;41010;53.252;5.786;2023-02-28T01:48:50;8.27;;;1.38;;
55114;SDS011;41010;53.252;5.786;2023-02-28T01:51:20;9.50;;;1.65;;
55114;SDS011;41010;53.252;5.786;2023-02-28T01:53:49;10.85;;;2.00;;
55114;SDS011;41010;53.252;5.786;2023-02-28T01:56:27;9.95;;;1.73;;
55114;SDS011;41010;53.252;5.786;2023-02-28T01:58:54;12.52;;;1.77;;
55114;SDS011;41010;53.252;5.786;2023-02-28T02:01:23;12.45;;;1.40;;
55114;SDS011;41010;53.252;5.786;2023-02-28T02:03:53;11.73;;;1.25;;
55114;SDS011;41010;53.252;5.786;2023-02-28T02:06:21;11.55;;;1.40;;
55114;SDS011;41010;53.252;5.786;2023-02-28T02:08:49;8.82;;;1.15;;
55114;SDS011;41010;53.252;5.786;2023-02-28T02:11:17;6.43;;;1.35;;
55114;SDS011;41010;53.252;5.786;2023-02-28T02:13:50;4.60;;;1.10;;
55114;SDS011;41010;53.252;5.786;2023-02-28T02:16:26;7.72;;;1.20;;
55114;SDS011;41010;53.252;5.786;2023-02-28T02:18:57;8.60;;;1.23;;
55114;SDS011;41010;53.252;5.786;2023-02-28T02:21:35;9.77;;;1.33;;
55114;SDS011;41010;53.252;5.786;2023-02-28T02:24:24;5.60;;;1.20;;
55114;SDS011;41010;53.252;5.786;2023-02-28T02:27:14;7.95;;;1.15;;
55114;SDS011;41010;53.252;5.786;2023-02-28T02:29:47;6.20;;;1.10;;
55114;SDS011;41010;53.252;5.786;2023-02-28T02:35:06;8.07;;;1.33;;
55114;SDS011;41010;53.252;5.786;2023-02-28T02:37:40;8.10;;;1.73;;
55114;SDS011;41010;53.252;5.786;2023-02-28T02:40:11;4.57;;;1.15;;
55114;SDS011;41010;53.252;5.786;2023-02-28T02:42:41;10.50;;;1.40;;
55114;SDS011;41010;53.252;5.786;2023-02-28T02:45:09;5.18;;;1.23;;
55114;SDS011;41010;53.252;5.786;2023-02-28T02:47:39;9.32;;;1.60;;
55114;SDS011;41010;53.252;5.786;2023-02-28T02:50:11;11.90;;;1.60;;
55114;SDS011;41010;53.252;5.786;2023-02-28T02:52:40;9.18;;;1.35;;
55114;SDS011;41010;53.252;5.786;2023-02-28T02:55:08;11.48;;;1.45;;
55114;SDS011;41010;53.252;5.786;2023-02-28T02:57:38;10.88;;;1.42;;
55114;SDS011;41010;53.252;5.786;2023-02-28T03:00:06;8.95;;;1.55;;
55114;SDS011;41010;53.252;5.786;2023-02-28T03:02:34;4.80;;;1.23;;
55114;SDS011;41010;53.252;5.786;2023-02-28T03:05:04;5.88;;;1.10;;
55114;SDS011;41010;53.252;5.786;2023-02-28T03:07:33;7.75;;;1.40;;
55114;SDS011;41010;53.252;5.786;2023-02-28T03:10:00;8.35;;;1.85;;
55114;SDS011;41010;53.252;5.786;2023-02-28T03:12:40;14.80;;;1.35;;
55114;SDS011;41010;53.252;5.786;2023-02-28T03:15:11;12.93;;;1.63;;
55114;SDS011;41010;53.252;5.786;2023-02-28T03:17:54;8.20;;;1.40;;
55114;SDS011;41010;53.252;5.786;2023-02-28T03:20:27;6.13;;;1.23;;
55114;SDS011;41010;53.252;5.786;2023-02-28T03:23:03;9.82;;;1.27;;
55114;SDS011;41010;53.252;5.786;2023-02-28T03:25:37;7.85;;;1.30;;
55114;SDS011;41010;53.252;5.786;2023-02-28T03:28:06;8.85;;;1.40;;
55114;SDS011;41010;53.252;5.786;2023-02-28T03:30:37;5.05;;;1.08;;
55114;SDS011;41010;53.252;5.786;2023-02-28T03:33:07;10.40;;;1.27;;
55114;SDS011;41010;53.252;5.786;2023-02-28T03:35:36;6.10;;;1.02;;
55114;SDS011;41010;53.252;5.786;2023-02-28T03:38:07;8.07;;;1.50;;
55114;SDS011;41010;53.252;5.786;2023-02-28T03:40:35;9.30;;;1.40;;
55114;SDS011;41010;53.252;5.786;2023-02-28T03:43:06;7.40;;;1.10;;
55114;SDS011;41010;53.252;5.786;2023-02-28T03:45:35;10.65;;;2.08;;
55114;SDS011;41010;53.252;5.786;2023-02-28T03:48:05;11.75;;;1.40;;
55114;SDS011;41010;53.252;5.786;2023-02-28T03:50:36;6.90;;;1.10;;
55114;SDS011;41010;53.252;5.786;2023-02-28T03:53:06;6.00;;;1.17;;
55114;SDS011;41010;53.252;5.786;2023-02-28T03:55:37;8.32;;;1.20;;
55114;SDS011;41010;53.252;5.786;2023-02-28T03:58:08;5.07;;;1.15;;
55114;SDS011;41010;53.252;5.786;2023-02-28T04:00:38;16.50;;;1.42;;
55114;SDS011;41010;53.252;5.786;2023-02-28T04:03:07;14.98;;;1.40;;
55114;SDS011;41010;53.252;5.786;2023-02-28T04:05:39;8.32;;;1.27;;
55114;SDS011;41010;53.252;5.786;2023-02-28T04:08:13;11.30;;;1.33;;
55114;SDS011;41010;53.252;5.786;2023-02-28T04:10:40;10.93;;;1.17;;
55114;SDS011;41010;53.252;5.786;2023-02-28T04:13:08;5.60;;;0.75;;
55114;SDS011;41010;53.252;5.786;2023-02-28T04:15:36;8.88;;;1.05;;
55114;SDS011;41010;53.252;5.786;2023-02-28T04:18:03;4.32;;;0.80;;
55114;SDS011;41010;53.252;5.786;2023-02-28T04:20:30;8.77;;;1.30;;
55114;SDS011;41010;53.252;5.786;2023-02-28T04:22:57;8.15;;;1.55;;
55114;SDS011;41010;53.252;5.786;2023-02-28T04:25:26;7.13;;;1.48;;
55114;SDS011;41010;53.252;5.786;2023-02-28T04:27:53;8.05;;;0.98;;
55114;SDS011;41010;53.252;5.786;2023-02-28T04:30:20;6.63;;;1.00;;
55114;SDS011;41010;53.252;5.786;2023-02-28T04:32:48;7.15;;;1.02;;
55114;SDS011;41010;53.252;5.786;2023-02-28T04:35:15;7.47;;;0.90;;
55114;SDS011;41010;53.252;5.786;2023-02-28T04:37:42;6.28;;;1.00;;
55114;SDS011;41010;53.252;5.786;2023-02-28T04:40:10;7.65;;;1.00;;
55114;SDS011;41010;53.252;5.786;2023-02-28T04:42:39;8.93;;;1.00;;
55114;SDS011;41010;53.252;5.786;2023-02-28T04:45:06;9.45;;;1.40;;
55114;SDS011;41010;53.252;5.786;2023-02-28T04:47:35;7.85;;;1.10;;
55114;SDS011;41010;53.252;5.786;2023-02-28T04:50:02;12.90;;;1.63;;
55114;SDS011;41010;53.252;5.786;2023-02-28T04:52:30;7.68;;;1.10;;
55114;SDS011;41010;53.252;5.786;2023-02-28T04:54:57;9.75;;;1.33;;
55114;SDS011;41010;53.252;5.786;2023-02-28T04:57:25;10.65;;;1.30;;
55114;SDS011;41010;53.252;5.786;2023-02-28T04:59:54;6.45;;;0.93;;
55114;SDS011;41010;53.252;5.786;2023-02-28T05:02:21;8.10;;;1.50;;
55114;SDS011;41010;53.252;5.786;2023-02-28T05:04:48;13.20;;;1.60;;
55114;SDS011;41010;53.252;5.786;2023-02-28T05:07:16;5.18;;;1.00;;
55114;SDS011;41010;53.252;5.786;2023-02-28T05:09:43;11.43;;;2.00;;
55114;SDS011;41010;53.252;5.786;2023-02-28T05:12:10;14.95;;;1.65;;
55114;SDS011;41010;53.252;5.786;2023-02-28T05:14:37;7.45;;;1.10;;
55114;SDS011;41010;53.252;5.786;2023-02-28T05:17:06;4.95;;;0.80;;
55114;SDS011;41010;53.252;5.786;2023-02-28T05:19:33;6.93;;;1.02;;
55114;SDS011;41010;53.252;5.786;2023-02-28T05:22:01;13.35;;;1.10;;
55114;SDS011;41010;53.252;5.786;2023-02-28T05:24:29;6.65;;;0.88;;
55114;SDS011;41010;53.252;5.786;2023-02-28T05:26:56;14.18;;;1.23;;
55114;SDS011;41010;53.252;5.786;2023-02-28T05:29:24;7.50;;;1.17;;
55114;SDS011;41010;53.252;5.786;2023-02-28T05:31:51;8.55;;;1.15;;
55114;SDS011;41010;53.252;5.786;2023-02-28T05:34:19;8.23;;;1.30;;
55114;SDS011;41010;53.252;5.786;2023-02-28T05:36:47;18.00;;;3.35;;
55114;SDS011;41010;53.252;5.786;2023-02-28T05:39:14;7.15;;;0.90;;
55114;SDS011;41010;53.252;5.786;2023-02-28T05:41:41;7.30;;;1.00;;
55114;SDS011;41010;53.252;5.786;2023-02-28T05:44:09;12.48;;;1.13;;
55114;SDS011;41010;53.252;5.786;2023-02-28T05:46:37;7.88;;;1.10;;
55114;SDS011;41010;53.252;5.786;2023-02-28T05:49:04;15.32;;;1.35;;
55114;SDS011;41010;53.252;5.786;2023-02-28T05:51:33;20.40;;;4.03;;
55114;SDS011;41010;53.252;5.786;2023-02-28T05:54:01;6.10;;;0.80;;
55114;SDS011;41010;53.252;5.786;2023-02-28T05:56:28;15.57;;;1.10;;
55114;SDS011;41010;53.252;5.786;2023-02-28T05:58:56;9.82;;;1.35;;
55114;SDS011;41010;53.252;5.786;2023-02-28T06:01:24;13.65;;;1.45;;
55114;SDS011;41010;53.252;5.786;2023-02-28T06:03:57;12.75;;;1.92;;
55114;SDS011;41010;53.252;5.786;2023-02-28T06:06:25;14.18;;;1.58;;
55114;SDS011;41010;53.252;5.786;2023-02-28T06:08:53;11.98;;;1.67;;
55114;SDS011;41010;53.252;5.786;2023-02-28T06:11:21;14.52;;;1.30;;
55114;SDS011;41010;53.252;5.786;2023-02-28T06:13:52;14.00;;;1.15;;
55114;SDS011;41010;53.252;5.786;2023-02-28T06:16:20;16.13;;;2.00;;
55114;SDS011;41010;53.252;5.786;2023-02-28T06:18:48;10.75;;;1.30;;
55114;SDS011;41010;53.252;5.786;2023-02-28T06:21:15;14.55;;;1.50;;
55114;SDS011;41010;53.252;5.786;2023-02-28T06:23:43;11.88;;;1.27;;
55114;SDS011;41010;53.252;5.786;2023-02-28T06:26:11;9.07;;;1.45;;
55114;SDS011;41010;53.252;5.786;2023-02-28T06:28:39;30.40;;;2.50;;
55114;SDS011;41010;53.252;5.786;2023-02-28T06:31:06;14.30;;;1.63;;
55114;SDS011;41010;53.252;5.786;2023-02-28T06:33:34;14.05;;;1.73;;
55114;SDS011;41010;53.252;5.786;2023-02-28T06:36:01;14.60;;;1.70;;
55114;SDS011;41010;53.252;5.786;2023-02-28T06:38:29;9.48;;;2.33;;
55114;SDS011;41010;53.252;5.786;2023-02-28T06:40:57;7.78;;;3.17;;
55114;SDS011;41010;53.252;5.786;2023-02-28T06:43:27;10.60;;;3.45;;
55114;SDS011;41010;53.252;5.786;2023-02-28T06:45:55;8.18;;;4.55;;
55114;SDS011;41010;53.252;5.786;2023-02-28T06:48:22;9.30;;;4.63;;
55114;SDS011;41010;53.252;5.786;2023-02-28T06:50:50;7.97;;;5.28;;
55114;SDS011;41010;53.252;5.786;2023-02-28T06:53:17;11.20;;;5.65;;
55114;SDS011;41010;53.252;5.786;2023-02-28T06:55:45;8.57;;;5.60;;
55114;SDS011;41010;53.252;5.786;2023-02-28T06:58:12;10.55;;;4.82;;
55114;SDS011;41010;53.252;5.786;2023-02-28T07:00:45;6.35;;;3.70;;
55114;SDS011;41010;53.252;5.786;2023-02-28T07:03:13;5.20;;;3.67;;
55114;SDS011;41010;53.252;5.786;2023-02-28T07:05:40;8.00;;;3.55;;
55114;SDS011;41010;53.252;5.786;2023-02-28T07:08:08;4.40;;;3.00;;
55114;SDS011;41010;53.252;5.786;2023-02-28T07:10:36;6.65;;;3.28;;
55114;SDS011;41010;53.252;5.786;2023-02-28T07:13:03;4.82;;;3.88;;
55114;SDS011;41010;53.252;5.786;2023-02-28T07:15:31;6.03;;;3.63;;
55114;SDS011;41010;53.252;5.786;2023-02-28T07:18:00;8.00;;;4.00;;
55114;SDS011;41010;53.252;5.786;2023-02-28T07:20:27;5.10;;;3.75;;
55114;SDS011;41010;53.252;5.786;2023-02-28T07:22:54;6.00;;;4.20;;
55114;SDS011;41010;53.252;5.786;2023-02-28T07:25:21;5.53;;;4.32;;
55114;SDS011;41010;53.252;5.786;2023-02-28T07:27:49;6.10;;;4.13;;
55114;SDS011;41010;53.252;5.786;2023-02-28T07:30:16;7.47;;;5.05;;
55114;SDS011;41010;53.252;5.786;2023-02-28T07:32:44;7.97;;;4.13;;
55114;SDS011;41010;53.252;5.786;2023-02-28T07:35:12;6.32;;;5.03;;
55114;SDS011;41010;53.252;5.786;2023-02-28T07:37:40;11.90;;;6.38;;
55114;SDS011;41010;53.252;5.786;2023-02-28T07:40:08;8.93;;;5.80;;
55114;SDS011;41010;53.252;5.786;2023-02-28T07:42:36;8.48;;;5.65;;
55114;SDS011;41010;53.252;5.786;2023-02-28T07:45:04;8.35;;;5.75;;
55114;SDS011;41010;53.252;5.786;2023-02-28T07:47:31;7.82;;;5.82;;
55114;SDS011;41010;53.252;5.786;2023-02-28T07:49:59;9.30;;;6.00;;
55114;SDS011;41010;53.252;5.786;2023-02-28T07:52:28;8.75;;;5.95;;
55114;SDS011;41010;53.252;5.786;2023-02-28T07:54:55;8.85;;;5.85;;
55114;SDS011;41010;53.252;5.786;2023-02-28T07:57:23;7.85;;;5.97;;
55114;SDS011;41010;53.252;5.786;2023-02-28T07:59:50;8.40;;;6.03;;
55114;SDS011;41010;53.252;5.786;2023-02-28T08:02:18;10.52;;;7.00;;
55114;SDS011;41010;53.252;5.786;2023-02-28T08:04:45;9.43;;;6.78;;
55114;SDS011;41010;53.252;5.786;2023-02-28T08:07:13;9.27;;;6.75;;
55114;SDS011;41010;53.252;5.786;2023-02-28T08:09:42;11.73;;;6.35;;
55114;SDS011;41010;53.252;5.786;2023-02-28T08:12:09;11.63;;;7.32;;
55114;SDS011;41010;53.252;5.786;2023-02-28T08:14:37;11.52;;;7.55;;
55114;SDS011;41010;53.252;5.786;2023-02-28T08:17:04;13.27;;;7.70;;
55114;SDS011;41010;53.252;5.786;2023-02-28T08:19:32;12.23;;;7.72;;
55114;SDS011;41010;53.252;5.786;2023-02-28T08:21:59;10.32;;;7.50;;
55114;SDS011;41010;53.252;5.786;2023-02-28T08:24:26;12.73;;;7.72;;
55114;SDS011;41010;53.252;5.786;2023-02-28T08:26:55;10.73;;;7.38;;
55114;SDS011;41010;53.252;5.786;2023-02-28T08:29:23;11.32;;;7.55;;
55114;SDS011;41010;53.252;5.786;2023-02-28T08:31:50;10.55;;;7.28;;
55114;SDS011;41010;53.252;5.786;2023-02-28T08:34:17;10.45;;;7.15;;
55114;SDS011;41010;53.252;5.786;2023-02-28T08:36:44;10.23;;;7.53;;
55114;SDS011;41010;53.252;5.786;2023-02-28T08:39:12;9.77;;;6.88;;
55114;SDS011;41010;53.252;5.786;2023-02-28T08:41:39;10.65;;;7.15;;
55114;SDS011;41010;53.252;5.786;2023-02-28T08:44:08;10.23;;;7.22;;
55114;SDS011;41010;53.252;5.786;2023-02-28T08:46:35;13.60;;;7.75;;
55114;SDS011;41010;53.252;5.786;2023-02-28T08:49:02;10.23;;;7.25;;
55114;SDS011;41010;53.252;5.786;2023-02-28T08:51:29;11.63;;;7.93;;
55114;SDS011;41010;53.252;5.786;2023-02-28T08:53:58;10.00;;;7.40;;
55114;SDS011;41010;53.252;5.786;2023-02-28T08:56:26;11.98;;;7.50;;
55114;SDS011;41010;53.252;5.786;2023-02-28T08:58:54;12.48;;;7.45;;
55114;SDS011;41010;53.252;5.786;2023-02-28T09:01:23;9.35;;;6.97;;
55114;SDS011;41010;53.252;5.786;2023-02-28T09:03:52;11.65;;;7.90;;
55114;SDS011;41010;53.252;5.786;2023-02-28T09:06:20;11.73;;;7.72;;
55114;SDS011;41010;53.252;5.786;2023-02-28T09:08:49;12.05;;;8.27;;
55114;SDS011;41010;53.252;5.786;2023-02-28T09:11:16;11.15;;;7.63;;
55114;SDS011;41010;53.252;5.786;2023-02-28T09:13:44;12.73;;;7.93;;
55114;SDS011;41010;53.252;5.786;2023-02-28T09:16:12;12.77;;;7.80;;
55114;SDS011;41010;53.252;5.786;2023-02-28T09:18:41;9.77;;;6.68;;
55114;SDS011;41010;53.252;5.786;2023-02-28T09:21:10;10.73;;;7.28;;
55114;SDS011;41010;53.252;5.786;2023-02-28T09:23:39;12.27;;;8.35;;
55114;SDS011;41010;53.252;5.786;2023-02-28T09:26:07;15.27;;;8.30;;
55114;SDS011;41010;53.252;5.786;2023-02-28T09:28:34;10.52;;;7.70;;
55114;SDS011;41010;53.252;5.786;2023-02-28T09:31:01;11.05;;;7.53;;
55114;SDS011;41010;53.252;5.786;2023-02-28T09:33:30;9.73;;;7.38;;
55114;SDS011;41010;53.252;5.786;2023-02-28T09:35:59;12.25;;;7.93;;
55114;SDS011;41010;53.252;5.786;2023-02-28T09:38:27;12.18;;;8.00;;
55114;SDS011;41010;53.252;5.786;2023-02-28T09:40:56;10.50;;;7.70;;
55114;SDS011;41010;53.252;5.786;2023-02-28T09:43:25;10.98;;;7.35;;
55114;SDS011;41010;53.252;5.786;2023-02-28T09:45:53;8.05;;;6.63;;
55114;SDS011;41010;53.252;5.786;2023-02-28T09:48:24;8.95;;;5.82;;
55114;SDS011;41010;53.252;5.786;2023-02-28T09:50:55;8.73;;;6.70;;
55114;SDS011;41010;53.252;5.786;2023-02-28T09:53:26;9.18;;;6.80;;
55114;SDS011;41010;53.252;5.786;2023-02-28T09:55:59;10.35;;;7.22;;
55114;SDS011;41010;53.252;5.786;2023-02-28T09:58:28;11.55;;;7.22;;
55114;SDS011;41010;53.252;5.786;2023-02-28T10:01:00;9.98;;;7.45;;
55114;SDS011;41010;53.252;5.786;2023-02-28T10:03:32;8.63;;;6.78;;
55114;SDS011;41010;53.252;5.786;2023-02-28T10:06:03;10.23;;;7.00;;
55114;SDS011;41010;53.252;5.786;2023-02-28T10:08:36;10.13;;;6.97;;
55114;SDS011;41010;53.252;5.786;2023-02-28T10:11:06;9.00;;;6.45;;
55114;SDS011;41010;53.252;5.786;2023-02-28T10:13:34;8.90;;;6.35;;
55114;SDS011;41010;53.252;5.786;2023-02-28T10:16:03;8.20;;;5.85;;
55114;SDS011;41010;53.252;5.786;2023-02-28T10:18:36;9.13;;;6.40;;
55114;SDS011;41010;53.252;5.786;2023-02-28T10:21:05;11.57;;;6.63;;
55114;SDS011;41010;53.252;5.786;2023-02-28T10:23:35;10.45;;;6.40;;
55114;SDS011;41010;53.252;5.786;2023-02-28T10:26:05;9.27;;;5.97;;
55114;SDS011;41010;53.252;5.786;2023-02-28T10:28:35;12.57;;;6.78;;
55114;SDS011;41010;53.252;5.786;2023-02-28T10:31:03;8.57;;;5.70;;
55114;SDS011;41010;53.252;5.786;2023-02-28T10:33:31;9.93;;;5.90;;
55114;SDS011;41010;53.252;5.786;2023-02-28T10:35:59;10.45;;;5.20;;
55114;SDS011;41010;53.252;5.786;2023-02-28T10:38:27;12.52;;;5.82;;
55114;SDS011;41010;53.252;5.786;2023-02-28T10:41:06;10.93;;;5.60;;
55114;SDS011;41010;53.252;5.786;2023-02-28T10:43:34;12.95;;;6.03;;
55114;SDS011;41010;53.252;5.786;2023-02-28T10:46:02;7.95;;;5.30;;
55114;SDS011;41010;53.252;5.786;2023-02-28T10:48:32;8.73;;;4.88;;
55114;SDS011;41010;53.252;5.786;2023-02-28T10:50:59;10.05;;;5.25;;
55114;SDS011;41010;53.252;5.786;2023-02-28T10:53:30;10.80;;;5.13;;
55114;SDS011;41010;53.252;5.786;2023-02-28T10:55:59;10.75;;;5.95;;
55114;SDS011;41010;53.252;5.786;2023-02-28T10:58:29;10.65;;;5.30;;
55114;SDS011;41010;53.252;5.786;2023-02-28T11:00:57;8.23;;;4.97;;
55114;SDS011;41010;53.252;5.786;2023-02-28T11:03:31;8.52;;;4.40;;
55114;SDS011;41010;53.252;5.786;2023-02-28T11:06:03;10.15;;;4.45;;
55114;SDS011;41010;53.252;5.786;2023-02-28T11:08:31;8.43;;;4.33;;
55114;SDS011;41010;53.252;5.786;2023-02-28T11:11:01;6.10;;;3.88;;
55114;SDS011;41010;53.252;5.786;2023-02-28T11:13:32;9.77;;;4.22;;
55114;SDS011;41010;53.252;5.786;2023-02-28T11:16:00;7.20;;;3.97;;
55114;SDS011;41010;53.252;5.786;2023-02-28T11:18:29;7.65;;;3.90;;
55114;SDS011;41010;53.252;5.786;2023-02-28T11:20:58;8.25;;;4.20;;
55114;SDS011;41010;53.252;5.786;2023-02-28T11:23:26;11.27;;;3.90;;
55114;SDS011;41010;53.252;5.786;2023-02-28T11:25:56;6.13;;;3.55;;
55114;SDS011;41010;53.252;5.786;2023-02-28T11:28:25;7.93;;;3.90;;
55114;SDS011;41010;53.252;5.786;2023-02-28T11:31:01;7.07;;;3.85;;
55114;SDS011;41010;53.252;5.786;2023-02-28T11:33:29;6.93;;;3.97;;
55114;SDS011;41010;53.252;5.786;2023-02-28T11:35:57;7.63;;;3.70;;
55114;SDS011;41010;53.252;5.786;2023-02-28T11:38:25;11.43;;;3.85;;
55114;SDS011;41010;53.252;5.786;2023-02-28T11:41:04;8.95;;;3.63;;
55114;SDS011;41010;53.252;5.786;2023-02-28T11:43:35;5.85;;;3.33;;
55114;SDS011;41010;53.252;5.786;2023-02-28T11:46:12;6.18;;;3.33;;
55114;SDS011;41010;53.252;5.786;2023-02-28T11:48:45;6.30;;;3.55;;
55114;SDS011;41010;53.252;5.786;2023-02-28T11:51:15;6.22;;;3.30;;
55114;SDS011;41010;53.252;5.786;2023-02-28T11:53:55;7.10;;;3.55;;
55114;SDS011;41010;53.252;5.786;2023-02-28T11:56:28;6.55;;;3.05;;
55114;SDS011;41010;53.252;5.786;2023-02-28T11:59:09;10.02;;;3.15;;
55114;SDS011;41010;53.252;5.786;2023-02-28T12:01:45;6.65;;;3.50;;
55114;SDS011;41010;53.252;5.786;2023-02-28T12:04:24;6.35;;;3.70;;
55114;SDS011;41010;53.252;5.786;2023-02-28T12:06:55;7.63;;;3.78;;
55114;SDS011;41010;53.252;5.786;2023-02-28T12:09:30;7.50;;;3.70;;
55114;SDS011;41010;53.252;5.786;2023-02-28T12:12:03;7.32;;;3.38;;
55114;SDS011;41010;53.252;5.786;2023-02-28T12:14:45;6.90;;;3.78;;
55114;SDS011;41010;53.252;5.786;2023-02-28T12:17:19;7.55;;;3.20;;
55114;SDS011;41010;53.252;5.786;2023-02-28T12:19:50;5.38;;;3.40;;
55114;SDS011;41010;53.252;5.786;2023-02-28T12:22:30;8.38;;;3.35;;
55114;SDS011;41010;53.252;5.786;2023-02-28T12:25:02;6.28;;;3.13;;
55114;SDS011;41010;53.252;5.786;2023-02-28T12:27:37;9.00;;;3.67;;
55114;SDS011;41010;53.252;5.786;2023-02-28T12:30:05;5.50;;;2.85;;
55114;SDS011;41010;53.252;5.786;2023-02-28T12:32:40;5.57;;;3.17;;
55114;SDS011;41010;53.252;5.786;2023-02-28T12:35:11;4.90;;;2.55;;
55114;SDS011;41010;53.252;5.786;2023-02-28T12:37:40;7.53;;;3.38;;
55114;SDS011;41010;53.252;5.786;2023-02-28T12:40:11;6.00;;;3.42;;
55114;SDS011;41010;53.252;5.786;2023-02-28T12:42:39;6.40;;;3.65;;
55114;SDS011;41010;53.252;5.786;2023-02-28T12:45:09;4.95;;;3.28;;
55114;SDS011;41010;53.252;5.786;2023-02-28T12:47:39;6.55;;;3.05;;
55114;SDS011;41010;53.252;5.786;2023-02-28T12:50:09;6.13;;;3.53;;
55114;SDS011;41010;53.252;5.786;2023-02-28T12:52:40;5.15;;;3.15;;
55114;SDS011;41010;53.252;5.786;2023-02-28T12:55:11;7.82;;;3.53;;
55114;SDS011;41010;53.252;5.786;2023-02-28T12:57:42;4.68;;;3.10;;
55114;SDS011;41010;53.252;5.786;2023-02-28T13:00:15;6.50;;;3.30;;
55114;SDS011;41010;53.252;5.786;2023-02-28T13:02:49;4.68;;;3.30;;
55114;SDS011;41010;53.252;5.786;2023-02-28T13:05:30;5.40;;;3.10;;
55114;SDS011;41010;53.252;5.786;2023-02-28T13:10:49;4.65;;;3.17;;
55114;SDS011;41010;53.252;5.786;2023-02-28T13:13:20;5.97;;;3.10;;
55114;SDS011;41010;53.252;5.786;2023-02-28T13:15:58;5.10;;;3.15;;
55114;SDS011;41010;53.252;5.786;2023-02-28T13:18:37;9.07;;;3.78;;
55114;SDS011;41010;53.252;5.786;2023-02-28T13:21:06;6.75;;;3.42;;
55114;SDS011;41010;53.252;5.786;2023-02-28T13:23:38;6.00;;;3.28;;
55114;SDS011;41010;53.252;5.786;2023-02-28T13:26:06;7.50;;;3.05;;
55114;SDS011;41010;53.252;5.786;2023-02-28T13:34:17;5.88;;;3.10;;
55114;SDS011;41010;53.252;5.786;2023-02-28T13:36:44;4.75;;;3.33;;
55114;SDS011;41010;53.252;5.786;2023-02-28T13:41:57;8.30;;;3.38;;
55114;SDS011;41010;53.252;5.786;2023-02-28T13:47:29;6.22;;;3.25;;
55114;SDS011;41010;53.252;5.786;2023-02-28T13:52:47;4.28;;;2.97;;
55114;SDS011;41010;53.252;5.786;2023-02-28T13:55:19;4.80;;;3.40;;
55114;SDS011;41010;53.252;5.786;2023-02-28T13:57:59;7.22;;;3.25;;
55114;SDS011;41010;53.252;5.786;2023-02-28T14:00:35;5.55;;;3.15;;
55114;SDS011;41010;53.252;5.786;2023-02-28T14:03:13;4.68;;;3.40;;
55114;SDS011;41010;53.252;5.786;2023-02-28T14:05:42;5.75;;;3.33;;
55114;SDS011;41010;53.252;5.786;2023-02-28T14:08:12;6.45;;;3.72;;
55114;SDS011;41010;53.252;5.786;2023-02-28T14:10:42;5.82;;;3.20;;
55114;SDS011;41010;53.252;5.786;2023-02-28T14:13:12;8.00;;;3.22;;
55114;SDS011;41010;53.252;5.786;2023-02-28T14:15:40;10.48;;;4.40;;
55114;SDS011;41010;53.252;5.786;2023-02-28T14:18:14;5.88;;;4.13;;
55114;SDS011;41010;53.252;5.786;2023-02-28T14:20:43;6.97;;;3.72;;
55114;SDS011;41010;53.252;5.786;2023-02-28T14:23:13;4.15;;;2.70;;
55114;SDS011;41010;53.252;5.786;2023-02-28T14:25:43;5.78;;;3.33;;
55114;SDS011;41010;53.252;5.786;2023-02-28T14:28:18;4.22;;;3.08;;
55114;SDS011;41010;53.252;5.786;2023-02-28T14:30:55;6.20;;;3.28;;
55114;SDS011;41010;53.252;5.786;2023-02-28T14:33:26;7.15;;;3.40;;
55114;SDS011;41010;53.252;5.786;2023-02-28T14:36:00;6.18;;;3.40;;
55114;SDS011;41010;53.252;5.786;2023-02-28T14:38:32;6.20;;;3.25;;
55114;SDS011;41010;53.252;5.786;2023-02-28T14:41:00;7.53;;;3.35;;
55114;SDS011;41010;53.252;5.786;2023-02-28T14:43:31;5.18;;;3.30;;
55114;SDS011;41010;53.252;5.786;2023-02-28T14:45:59;5.75;;;3.45;;
55114;SDS011;41010;53.252;5.786;2023-02-28T14:48:26;6.32;;;3.22;;
55114;SDS011;41010;53.252;5.786;2023-02-28T14:50:55;5.00;;;3.22;;
55114;SDS011;41010;53.252;5.786;2023-02-28T14:53:24;4.50;;;2.92;;
55114;SDS011;41010;53.252;5.786;2023-02-28T14:55:54;5.03;;;2.90;;
55114;SDS011;41010;53.252;5.786;2023-02-28T14:58:23;5.38;;;3.30;;
55114;SDS011;41010;53.252;5.786;2023-02-28T15:00:51;5.55;;;3.13;;
55114;SDS011;41010;53.252;5.786;2023-02-28T15:03:19;4.75;;;2.90;;
55114;SDS011;41010;53.252;5.786;2023-02-28T15:05:53;5.80;;;3.28;;
55114;SDS011;41010;53.252;5.786;2023-02-28T15:08:21;6.45;;;3.10;;
55114;SDS011;41010;53.252;5.786;2023-02-28T15:10:51;6.70;;;3.35;;
55114;SDS011;41010;53.252;5.786;2023-02-28T15:13:21;4.68;;;2.90;;
55114;SDS011;41010;53.252;5.786;2023-02-28T15:15:50;6.10;;;3.05;;